Terminal Aerodrome Forecast
Issued by NWS Denver/Boulder, CO

Home | Current Version | Previous Version | Text Only | Print | Product List | Glossary On
Versions: 1 2 3 4 5 6 7 8 9 10 11 12 13 14 15 16 17 18 19 20 21 22 23 24 25 26 27 28 29 30 31 32 33 34 35 36 37 38 39 40 41 42 43 44 45 46 47 48 49 50
487
FTUS45 KBOU 192330
TAFDEN
TAF
KDEN 192330Z 2000/2106 09011KT P6SM FEW220
     FM200100 14007KT P6SM FEW220
     FM200300 16007KT P6SM SCT220
     FM200500 20008KT P6SM BKN220
     FM201100 23008KT P6SM VCSH SCT050 BKN070 OVC120 PROB30
      2012/2016 5SM -SHSN BKN025 OVC050
     FM201600 VRB05KT P6SM VCSH SCT040 OVC070
     FM202100 23008KT P6SM FEW060 SCT090 BKN120=

USA.gov is the U.S. government's official web portal to all federal, state and local government web resources and services.